Time;durP1;ratioP1;P1;durP2;ratioP2;P2;SDS_P1;SDS_P2;PMS_P1;PMS_P2;Temp;Humidity;BMP_temperature;BMP_pressure;BME280_temperature;BME280_humidity;BME280_pressure;Samples;Min_cycle;Max_cycle;Signal;HPM_P1;HPM_P2
2023/03/07 00:01:28;;;;;;;1.40;1.30;;;20.60;64.30;;;;;;5049776;28;20200;-51
2023/03/07 00:03:55;;;;;;;1.60;1.15;;;20.60;64.30;;;;;;5043370;28;20214;-53
2023/03/07 00:06:22;;;;;;;1.58;1.48;;;20.60;64.30;;;;;;5043165;28;20207;-53
2023/03/07 00:08:50;;;;;;;1.80;1.38;;;20.60;64.40;;;;;;5045426;28;20690;-51
2023/03/07 00:11:16;;;;;;;1.42;1.33;;;20.60;64.50;;;;;;5045333;28;20227;-50
2023/03/07 00:13:44;;;;;;;1.73;1.00;;;20.50;64.60;;;;;;5045842;28;20200;-52
2023/03/07 00:16:14;;;;;;;2.97;1.30;;;20.50;64.80;;;;;;5045127;28;20728;-55
2023/03/07 00:18:42;;;;;;;1.90;1.05;;;20.40;64.80;;;;;;5044863;28;20381;-58
2023/03/07 00:21:11;;;;;;;1.45;1.08;;;20.40;65.00;;;;;;5040106;28;20242;-57
2023/03/07 00:23:39;;;;;;;3.17;1.10;;;20.40;65.00;;;;;;5045394;28;20219;-52
2023/03/07 00:26:07;;;;;;;1.38;1.20;;;20.40;65.10;;;;;;5044305;28;20655;-54
2023/03/07 00:28:35;;;;;;;1.33;0.98;;;20.40;65.20;;;;;;5042211;28;20423;-60
2023/03/07 00:31:03;;;;;;;3.65;1.35;;;20.30;65.10;;;;;;5046105;28;20199;-54
2023/03/07 00:33:31;;;;;;;1.10;1.00;;;20.30;65.10;;;;;;5047994;28;20571;-56
2023/03/07 00:35:59;;;;;;;2.85;1.85;;;20.30;65.20;;;;;;5045668;28;20215;-54
2023/03/07 00:38:27;;;;;;;1.25;1.15;;;20.30;65.20;;;;;;5036780;28;20211;-50
2023/03/07 00:40:59;;;;;;;2.38;1.20;;;20.30;65.20;;;;;;5045744;28;20205;-50
2023/03/07 00:43:27;;;;;;;2.22;1.75;;;20.30;65.30;;;;;;5047669;28;20411;-52
2023/03/07 00:45:53;;;;;;;2.00;1.30;;;20.30;65.30;;;;;;5047142;28;20203;-53
2023/03/07 00:48:21;;;;;;;1.40;1.10;;;20.30;65.30;;;;;;5047074;28;20191;-49
2023/03/07 00:50:49;;;;;;;3.45;1.80;;;20.30;65.30;;;;;;5048082;28;20542;-53
2023/03/07 00:53:16;;;;;;;1.50;1.40;;;20.20;65.30;;;;;;5044238;28;20282;-50
2023/03/07 00:55:52;;;;;;;1.42;1.17;;;20.20;65.30;;;;;;5045931;28;20215;-53
2023/03/07 00:58:19;;;;;;;2.50;1.25;;;20.20;65.40;;;;;;5047732;28;20659;-56
2023/03/07 01:00:45;;;;;;;2.33;0.90;;;20.20;65.40;;;;;;5046606;28;20199;-55
2023/03/07 01:03:12;;;;;;;1.30;1.00;;;20.20;65.60;;;;;;5038987;28;20560;-55
2023/03/07 01:05:39;;;;;;;1.48;1.38;;;20.20;65.40;;;;;;5047427;28;20560;-56
2023/03/07 01:08:07;;;;;;;1.27;1.17;;;20.20;65.50;;;;;;5045777;28;20519;-55
2023/03/07 01:10:34;;;;;;;1.23;1.13;;;20.20;65.60;;;;;;5047370;28;20211;-61
2023/03/07 01:13:01;;;;;;;2.13;1.27;;;20.20;65.60;;;;;;5046889;28;20207;-53
2023/03/07 01:15:28;;;;;;;1.50;1.20;;;20.20;65.60;;;;;;5052780;28;20568;-55
2023/03/07 01:17:54;;;;;;;1.10;0.98;;;20.10;65.50;;;;;;5041311;28;20210;-54
2023/03/07 01:20:21;;;;;;;1.42;1.33;;;20.10;66.00;;;;;;5047049;28;20206;-54
2023/03/07 01:22:48;;;;;;;2.47;1.00;;;20.10;65.50;;;;;;5040857;28;20213;-53
2023/03/07 01:25:16;;;;;;;1.20;1.08;;;20.20;65.60;;;;;;5046961;28;20667;-51
2023/03/07 01:27:43;;;;;;;1.20;0.95;;;20.20;65.60;;;;;;5046474;28;20667;-57
2023/03/07 01:30:11;;;;;;;1.10;1.00;;;20.20;65.60;;;;;;5046348;28;20701;-63
2023/03/07 01:32:37;;;;;;;1.15;0.90;;;20.20;65.60;;;;;;5052717;28;20207;-62
2023/03/07 01:35:05;;;;;;;1.60;0.85;;;20.20;65.50;;;;;;5048809;28;20670;-62
2023/03/07 01:37:32;;;;;;;1.17;0.90;;;20.20;65.50;;;;;;5042290;28;20545;-64
2023/03/07 01:39:58;;;;;;;1.30;1.00;;;20.20;65.50;;;;;;5048800;28;20196;-62
2023/03/07 01:42:30;;;;;;;1.00;0.90;;;20.20;65.50;;;;;;5047745;28;20616;-63
2023/03/07 01:45:00;;;;;;;1.10;1.00;;;20.20;65.50;;;;;;5044780;28;20318;-62
2023/03/07 01:47:26;;;;;;;1.42;0.93;;;20.20;65.50;;;;;;5044732;28;20200;-63
2023/03/07 01:49:53;;;;;;;1.40;1.10;;;20.20;65.50;;;;;;5050831;28;20207;-65
2023/03/07 01:52:24;;;;;;;1.05;0.90;;;20.20;65.50;;;;;;5042879;28;20195;-62
2023/03/07 01:54:54;;;;;;;1.17;1.08;;;20.20;65.40;;;;;;5046790;28;20195;-62
2023/03/07 01:57:24;;;;;;;1.20;1.00;;;20.20;65.40;;;;;;5045427;28;20195;-62
2023/03/07 01:59:57;;;;;;;2.05;1.10;;;20.20;65.50;;;;;;5050098;28;20199;-63
2023/03/07 02:02:24;;;;;;;1.25;1.15;;;20.20;65.50;;;;;;5049777;28;20191;-63
2023/03/07 02:04:55;;;;;;;2.35;0.98;;;20.20;65.50;;;;;;5043478;28;20272;-62
2023/03/07 02:07:24;;;;;;;1.70;0.98;;;20.20;65.40;;;;;;5047227;28;20207;-62
2023/03/07 02:09:55;;;;;;;1.05;0.95;;;20.20;65.40;;;;;;5050178;28;20242;-62
2023/03/07 02:12:21;;;;;;;1.38;1.00;;;20.20;65.40;;;;;;5045798;28;20199;-62
2023/03/07 02:14:49;;;;;;;1.00;0.82;;;20.20;65.50;;;;;;5051013;28;20241;-65
2023/03/07 02:17:18;;;;;;;1.30;1.17;;;20.20;65.50;;;;;;5048687;28;20223;-62
2023/03/07 02:19:59;;;;;;;1.00;0.90;;;20.20;65.50;;;;;;5045268;28;20241;-62
2023/03/07 02:22:27;;;;;;;0.90;0.80;;;20.20;65.50;;;;;;5051069;28;20242;-62
2023/03/07 02:24:58;;;;;;;1.00;0.90;;;20.20;65.40;;;;;;5042285;28;20249;-62
2023/03/07 02:27:30;;;;;;;1.40;1.30;;;20.20;65.50;;;;;;5045751;28;20567;-63
2023/03/07 02:29:57;;;;;;;1.00;0.90;;;20.10;65.40;;;;;;5044340;28;20260;-62
2023/03/07 02:32:23;;;;;;;1.17;1.08;;;20.10;65.30;;;;;;5043946;28;20204;-61
2023/03/07 02:34:50;;;;;;;1.00;0.85;;;20.10;65.30;;;;;;5046564;28;20200;-63
2023/03/07 02:37:21;;;;;;;1.27;0.90;;;20.10;65.40;;;;;;5048600;28;20223;-63
2023/03/07 02:39:48;;;;;;;1.20;1.00;;;20.10;65.40;;;;;;5050158;28;20852;-62
2023/03/07 02:42:18;;;;;;;1.40;1.10;;;20.10;65.40;;;;;;5048784;28;20196;-63
2023/03/07 02:44:47;;;;;;;1.00;0.90;;;20.10;65.40;;;;;;5048424;28;20826;-63
2023/03/07 02:47:14;;;;;;;2.75;0.90;;;20.10;65.40;;;;;;5047948;28;20245;-64
2023/03/07 02:49:40;;;;;;;1.70;1.15;;;20.10;65.40;;;;;;5049154;28;20667;-63
2023/03/07 02:52:07;;;;;;;1.85;0.88;;;20.10;65.40;;;;;;5049940;28;20246;-61
2023/03/07 02:54:34;;;;;;;2.10;0.90;;;20.10;65.40;;;;;;5046441;28;20207;-62
2023/03/07 02:57:01;;;;;;;1.30;1.20;;;20.10;65.40;;;;;;5043447;28;20223;-63
2023/03/07 02:59:27;;;;;;;1.08;0.85;;;20.10;65.40;;;;;;5046856;28;20207;-62
2023/03/07 03:01:56;;;;;;;2.10;1.00;;;20.10;65.40;;;;;;5046841;28;20199;-62
2023/03/07 03:04:23;;;;;;;1.00;0.90;;;20.10;65.40;;;;;;5047209;28;20202;-63
2023/03/07 03:06:49;;;;;;;1.25;1.10;;;20.10;65.40;;;;;;5047416;28;20626;-62
2023/03/07 03:09:16;;;;;;;1.00;0.80;;;20.10;65.40;;;;;;5041215;28;20588;-61
2023/03/07 03:11:43;;;;;;;2.58;1.10;;;20.10;65.40;;;;;;5046295;28;20211;-62
2023/03/07 03:14:10;;;;;;;2.00;1.02;;;20.10;65.40;;;;;;5047892;28;20270;-62
2023/03/07 03:16:38;;;;;;;1.23;0.77;;;20.10;65.40;;;;;;5047502;28;20234;-64
2023/03/07 03:19:06;;;;;;;1.10;0.90;;;20.10;65.40;;;;;;5046306;28;20199;-65
2023/03/07 03:21:34;;;;;;;1.30;1.00;;;20.10;65.40;;;;;;5042615;28;20219;-62
2023/03/07 03:24:05;;;;;;;1.40;1.10;;;20.10;65.40;;;;;;5038789;28;20202;-63
2023/03/07 03:26:32;;;;;;;1.13;0.90;;;20.10;65.40;;;;;;5046771;28;20210;-63
2023/03/07 03:28:58;;;;;;;1.17;1.08;;;20.00;65.30;;;;;;5046642;28;20192;-65
2023/03/07 03:31:27;;;;;;;1.65;1.17;;;20.10;65.40;;;;;;5041018;28;20204;-63
2023/03/07 03:33:54;;;;;;;1.48;0.90;;;20.00;65.30;;;;;;5037373;28;20212;-63
2023/03/07 03:36:24;;;;;;;1.17;1.08;;;20.00;65.30;;;;;;5040647;28;20218;-62
2023/03/07 03:38:52;;;;;;;1.10;1.00;;;20.00;65.30;;;;;;5046478;28;20263;-61
2023/03/07 03:41:19;;;;;;;1.00;0.82;;;20.00;65.30;;;;;;5048089;28;20191;-62
2023/03/07 03:43:45;;;;;;;1.10;0.90;;;20.00;65.30;;;;;;5049055;28;20222;-62
2023/03/07 03:46:12;;;;;;;1.20;0.95;;;20.00;65.30;;;;;;5043920;28;20226;-62
2023/03/07 03:48:39;;;;;;;1.13;1.00;;;20.00;65.30;;;;;;5043667;28;20246;-64
2023/03/07 03:51:07;;;;;;;1.15;1.05;;;20.00;65.30;;;;;;5050142;28;20210;-63
2023/03/07 03:53:37;;;;;;;1.38;1.00;;;20.00;65.30;;;;;;5049053;28;20679;-63
2023/03/07 03:56:06;;;;;;;1.35;0.98;;;20.00;65.30;;;;;;5036944;28;20231;-62
2023/03/07 03:58:33;;;;;;;1.05;0.95;;;20.00;65.30;;;;;;5043102;28;20204;-62
2023/03/07 04:01:01;;;;;;;1.05;0.95;;;20.00;65.30;;;;;;5037811;28;20626;-62
2023/03/07 04:03:28;;;;;;;1.00;0.80;;;20.00;65.30;;;;;;5039621;28;20762;-63
2023/03/07 04:05:59;;;;;;;1.38;1.00;;;20.00;65.30;;;;;;5048582;28;20210;-64
2023/03/07 04:08:26;;;;;;;1.10;1.00;;;20.00;65.30;;;;;;5047560;28;20195;-64
2023/03/07 04:10:54;;;;;;;1.00;0.90;;;20.00;65.30;;;;;;5047575;28;20218;-62
2023/03/07 04:13:21;;;;;;;1.10;0.90;;;20.00;65.30;;;;;;5047117;28;20203;-61
2023/03/07 04:15:47;;;;;;;1.00;0.90;;;20.00;65.30;;;;;;5045988;28;20191;-63
2023/03/07 04:18:14;;;;;;;1.13;1.00;;;20.00;65.30;;;;;;5038296;28;20207;-62
2023/03/07 04:20:46;;;;;;;1.65;0.95;;;20.00;65.30;;;;;;5045608;28;20666;-62
2023/03/07 04:23:13;;;;;;;0.90;0.80;;;20.00;65.40;;;;;;5049411;28;20718;-62
2023/03/07 04:25:40;;;;;;;0.93;0.77;;;20.00;65.30;;;;;;5046381;28;20668;-63
2023/03/07 04:28:08;;;;;;;1.20;1.10;;;19.90;65.20;;;;;;5040860;28;20199;-62
2023/03/07 04:30:35;;;;;;;1.10;0.98;;;19.90;65.20;;;;;;5044261;28;20202;-62
2023/03/07 04:33:01;;;;;;;1.20;0.95;;;19.90;65.20;;;;;;5045217;28;20203;-64
2023/03/07 04:35:28;;;;;;;1.00;0.90;;;19.90;65.20;;;;;;5044720;28;20675;-63
2023/03/07 04:37:55;;;;;;;1.08;0.98;;;19.90;65.20;;;;;;5045380;28;20232;-64
2023/03/07 04:40:22;;;;;;;1.40;1.00;;;19.90;65.20;;;;;;5047365;28;20199;-63
2023/03/07 04:42:48;;;;;;;2.00;0.90;;;19.90;65.20;;;;;;5042426;28;20230;-63
2023/03/07 04:45:16;;;;;;;1.85;1.00;;;19.90;65.30;;;;;;5044797;28;20206;-62
2023/03/07 04:47:43;;;;;;;1.08;0.73;;;19.90;65.20;;;;;;5045000;28;20206;-62
2023/03/07 04:50:11;;;;;;;1.75;1.00;;;19.90;66.00;;;;;;5048454;28;20671;-63
2023/03/07 04:52:37;;;;;;;1.00;0.80;;;19.90;65.20;;;;;;5047015;28;20210;-62
2023/03/07 04:55:05;;;;;;;1.42;1.13;;;19.90;65.20;;;;;;5044463;28;20587;-63
2023/03/07 04:57:31;;;;;;;1.10;0.82;;;19.90;65.30;;;;;;5048244;28;20234;-66
2023/03/07 04:59:58;;;;;;;1.17;1.05;;;19.90;65.20;;;;;;5040342;28;20588;-63
2023/03/07 05:02:26;;;;;;;1.00;0.90;;;19.90;65.20;;;;;;5046235;28;20192;-63
2023/03/07 05:04:53;;;;;;;0.95;0.75;;;19.90;65.20;;;;;;5044692;28;20192;-63
2023/03/07 05:07:19;;;;;;;1.27;0.80;;;19.90;65.20;;;;;;5043121;28;20675;-61
2023/03/07 05:09:46;;;;;;;1.50;1.10;;;19.90;65.30;;;;;;5043956;28;20196;-63
2023/03/07 05:12:13;;;;;;;1.10;1.00;;;19.90;65.20;;;;;;5043946;28;20310;-62
2023/03/07 05:14:39;;;;;;;1.10;0.93;;;19.90;65.20;;;;;;5045465;28;20203;-62
2023/03/07 05:17:06;;;;;;;1.00;0.80;;;19.90;65.20;;;;;;5047421;28;20675;-63
2023/03/07 05:19:34;;;;;;;1.48;0.90;;;19.90;65.30;;;;;;5046742;28;20207;-63
2023/03/07 05:22:01;;;;;;;1.10;1.00;;;19.90;65.30;;;;;;5036833;28;20943;-64
2023/03/07 05:24:28;;;;;;;1.00;0.90;;;19.90;65.20;;;;;;5047261;28;20208;-62
2023/03/07 05:26:54;;;;;;;1.20;0.95;;;19.90;65.20;;;;;;5047367;28;20210;-62
2023/03/07 05:29:21;;;;;;;1.48;0.98;;;19.90;65.20;;;;;;5044421;28;20202;-62
2023/03/07 05:31:48;;;;;;;1.13;1.02;;;19.90;65.20;;;;;;5045152;28;20341;-63
2023/03/07 05:34:15;;;;;;;1.20;1.10;;;19.90;65.20;;;;;;5042749;28;20206;-63
2023/03/07 05:36:43;;;;;;;1.10;1.00;;;19.90;65.20;;;;;;5046396;28;20219;-62
2023/03/07 05:39:10;;;;;;;1.60;1.20;;;19.90;65.20;;;;;;5045553;28;20678;-64
2023/03/07 05:41:37;;;;;;;1.00;0.80;;;19.90;65.20;;;;;;5041519;28;20197;-62
2023/03/07 05:44:04;;;;;;;1.00;0.90;;;19.90;65.20;;;;;;5049516;28;20211;-62
2023/03/07 05:46:30;;;;;;;1.05;0.85;;;19.90;65.20;;;;;;5048087;28;20562;-63
2023/03/07 05:48:57;;;;;;;1.20;0.88;;;19.90;65.20;;;;;;5050108;28;20600;-62
2023/03/07 05:51:24;;;;;;;1.25;1.10;;;19.90;65.20;;;;;;5049250;28;20200;-63
2023/03/07 05:53:52;;;;;;;1.40;0.98;;;19.90;66.00;;;;;;5049491;28;20579;-63
2023/03/07 05:56:18;;;;;;;1.10;0.90;;;19.80;65.10;;;;;;5051103;28;20207;-64
2023/03/07 05:58:45;;;;;;;1.10;0.90;;;19.80;65.10;;;;;;5048741;28;20197;-63
2023/03/07 06:01:12;;;;;;;1.20;1.00;;;19.80;65.10;;;;;;5045704;28;20533;-62
2023/03/07 06:03:39;;;;;;;1.10;0.90;;;19.80;65.10;;;;;;5043577;28;20210;-62
2023/03/07 06:06:06;;;;;;;1.40;1.30;;;19.80;65.10;;;;;;5048545;28;20192;-62
2023/03/07 06:08:33;;;;;;;1.17;1.08;;;19.80;65.10;;;;;;5048811;28;20191;-61
2023/03/07 06:11:01;;;;;;;1.00;0.90;;;19.80;65.10;;;;;;5049175;28;20191;-62
2023/03/07 06:13:29;;;;;;;1.20;1.10;;;19.80;65.90;;;;;;5044118;28;20204;-62
2023/03/07 06:15:57;;;;;;;1.20;1.00;;;19.80;65.10;;;;;;5045826;28;20191;-62
2023/03/07 06:18:25;;;;;;;1.13;1.00;;;19.80;65.90;;;;;;5040722;28;20226;-62
2023/03/07 06:20:57;;;;;;;1.05;0.95;;;19.80;65.10;;;;;;5047100;28;20226;-63
2023/03/07 06:23:24;;;;;;;1.48;1.00;;;19.80;65.10;;;;;;5045915;28;20715;-62
2023/03/07 06:25:50;;;;;;;1.05;0.95;;;19.80;65.10;;;;;;5048500;28;20203;-64
2023/03/07 06:28:19;;;;;;;1.10;0.93;;;19.90;65.20;;;;;;5048366;28;20208;-62
2023/03/07 06:30:46;;;;;;;1.00;0.85;;;19.90;65.10;;;;;;5047065;28;20200;-62
2023/03/07 06:33:12;;;;;;;1.00;0.90;;;19.90;65.10;;;;;;5049285;28;20710;-63
2023/03/07 06:35:40;;;;;;;0.98;0.77;;;19.90;65.10;;;;;;5046651;28;20203;-62
2023/03/07 06:38:07;;;;;;;1.10;1.00;;;19.90;65.20;;;;;;5046594;28;20220;-63
2023/03/07 06:40:34;;;;;;;1.05;0.80;;;19.90;65.10;;;;;;5046621;28;20200;-62
2023/03/07 06:43:00;;;;;;;1.40;0.90;;;19.90;65.10;;;;;;5042527;28;20204;-62
2023/03/07 06:45:28;;;;;;;1.00;0.88;;;19.80;65.10;;;;;;5047632;28;20199;-63
2023/03/07 06:47:55;;;;;;;1.13;1.00;;;19.80;65.10;;;;;;5050693;28;20207;-62
2023/03/07 06:50:22;;;;;;;1.30;0.98;;;19.80;65.00;;;;;;5048707;28;20203;-61
2023/03/07 06:52:50;;;;;;;1.10;1.00;;;19.80;65.00;;;;;;5041663;28;20208;-63
2023/03/07 06:55:17;;;;;;;0.98;0.88;;;19.80;65.00;;;;;;5045457;28;20191;-63
2023/03/07 06:57:44;;;;;;;1.27;0.73;;;19.80;65.00;;;;;;5047479;28;20223;-62
2023/03/07 07:00:12;;;;;;;1.00;0.82;;;19.80;65.00;;;;;;5046263;28;20195;-64
2023/03/07 07:02:40;;;;;;;1.30;1.20;;;19.80;65.10;;;;;;5047803;28;20200;-64
2023/03/07 07:05:08;;;;;;;1.00;0.90;;;19.80;65.10;;;;;;5044187;28;20206;-62
2023/03/07 07:07:35;;;;;;;1.10;0.88;;;19.80;65.10;;;;;;5051003;28;20203;-65
2023/03/07 07:10:01;;;;;;;1.00;0.90;;;19.80;65.10;;;;;;5044975;28;20287;-61
2023/03/07 07:12:28;;;;;;;1.10;0.80;;;19.80;65.10;;;;;;5042898;28;20200;-65
2023/03/07 07:14:55;;;;;;;1.10;1.00;;;19.80;65.00;;;;;;5048324;28;20824;-62
2023/03/07 07:17:21;;;;;;;1.00;0.85;;;19.80;65.00;;;;;;5044996;28;20220;-62
2023/03/07 07:19:49;;;;;;;1.23;1.00;;;19.90;65.10;;;;;;5043752;28;20203;-63
2023/03/07 07:22:16;;;;;;;0.90;0.77;;;19.90;65.10;;;;;;5049659;28;20226;-62
2023/03/07 07:24:43;;;;;;;0.90;0.80;;;19.90;65.10;;;;;;5043455;28;20211;-63
2023/03/07 07:27:10;;;;;;;1.10;1.00;;;19.90;65.20;;;;;;5047669;28;20211;-62
2023/03/07 07:29:37;;;;;;;0.90;0.80;;;19.90;65.10;;;;;;5039489;28;20188;-63
2023/03/07 07:32:04;;;;;;;1.00;0.80;;;19.90;65.10;;;;;;5045527;28;20690;-60
2023/03/07 07:34:33;;;;;;;13.38;1.40;;;19.90;65.20;;;;;;5045104;28;20191;-65
2023/03/07 07:37:01;;;;;;;1.02;0.93;;;20.00;65.40;;;;;;5043819;28;20223;-64
2023/03/07 07:39:28;;;;;;;1.10;0.90;;;19.90;65.40;;;;;;5047527;28;20197;-64
2023/03/07 07:41:55;;;;;;;6.28;1.10;;;19.90;65.40;;;;;;5038921;28;20198;-64
2023/03/07 07:44:21;;;;;;;1.27;0.90;;;19.90;65.40;;;;;;5038553;28;20208;-64
2023/03/07 07:46:48;;;;;;;1.55;0.95;;;19.90;65.40;;;;;;5042376;28;20196;-64
2023/03/07 07:49:15;;;;;;;2.55;1.00;;;19.90;65.40;;;;;;5043700;28;20581;-64
2023/03/07 07:51:41;;;;;;;2.08;0.90;;;19.90;65.50;;;;;;5049819;28;20282;-64
2023/03/07 07:54:10;;;;;;;1.30;1.10;;;19.90;65.50;;;;;;5050421;28;20200;-64
2023/03/07 07:56:36;;;;;;;1.65;0.95;;;19.90;65.60;;;;;;5045338;28;20210;-64
2023/03/07 07:59:03;;;;;;;1.25;1.00;;;19.90;65.60;;;;;;5036383;28;20258;-64
2023/03/07 08:01:30;;;;;;;2.92;1.05;;;19.90;65.60;;;;;;5043065;28;20206;-64
2023/03/07 08:03:56;;;;;;;1.20;0.90;;;19.90;65.60;;;;;;5042133;28;20218;-64
2023/03/07 08:06:26;;;;;;;0.85;0.70;;;19.90;65.70;;;;;;5049092;28;20202;-64
2023/03/07 08:08:53;;;;;;;1.13;0.98;;;19.90;65.70;;;;;;5048585;28;20644;-64
2023/03/07 08:11:22;;;;;;;1.10;1.00;;;19.90;65.70;;;;;;5044961;28;20206;-64
2023/03/07 08:13:49;;;;;;;0.93;0.80;;;20.00;65.80;;;;;;5042773;28;20647;-64
2023/03/07 08:16:18;;;;;;;1.70;0.90;;;20.00;65.90;;;;;;5043152;28;20655;-64
2023/03/07 08:18:49;;;;;;;0.90;0.80;;;20.00;65.90;;;;;;5036808;28;20219;-64
2023/03/07 08:21:15;;;;;;;3.70;1.00;;;20.00;65.90;;;;;;5042624;28;20207;-64
2023/03/07 08:23:42;;;;;;;1.20;1.10;;;20.00;66.00;;;;;;5046858;28;20555;-64
2023/03/07 08:26:12;;;;;;;1.00;0.88;;;20.00;66.00;;;;;;5040782;28;20200;-64
2023/03/07 08:28:41;;;;;;;1.10;0.90;;;20.00;66.00;;;;;;5047495;28;20203;-64
2023/03/07 08:31:09;;;;;;;1.10;1.00;;;20.00;66.00;;;;;;5042087;28;20679;-64
2023/03/07 08:33:36;;;;;;;1.00;0.90;;;20.00;66.00;;;;;;5041725;28;20207;-64
2023/03/07 08:36:04;;;;;;;1.10;1.00;;;20.00;66.00;;;;;;5044488;28;20204;-64
2023/03/07 08:38:31;;;;;;;1.00;0.80;;;20.00;66.20;;;;;;5047773;28;20227;-64
2023/03/07 08:41:00;;;;;;;1.05;0.93;;;20.00;66.30;;;;;;5044548;28;20199;-64
2023/03/07 08:43:28;;;;;;;1.50;1.10;;;20.00;66.50;;;;;;5039663;28;20250;-64
2023/03/07 08:45:56;;;;;;;1.10;0.90;;;19.90;66.20;;;;;;5041631;28;20204;-64
2023/03/07 08:48:24;;;;;;;1.42;1.25;;;20.00;66.40;;;;;;5043282;28;20560;-64
2023/03/07 08:50:51;;;;;;;1.42;1.33;;;20.00;66.30;;;;;;5048824;28;20202;-64
2023/03/07 08:53:17;;;;;;;0.90;0.80;;;20.00;66.30;;;;;;5044427;28;20203;-64
2023/03/07 08:55:44;;;;;;;1.00;0.90;;;20.00;66.40;;;;;;5045594;28;20200;-64
2023/03/07 08:58:11;;;;;;;1.20;0.98;;;20.00;66.30;;;;;;5046938;28;20207;-63
2023/03/07 09:00:38;;;;;;;1.10;0.93;;;20.00;66.30;;;;;;5045954;28;20199;-64
2023/03/07 09:03:07;;;;;;;1.23;0.90;;;20.00;66.40;;;;;;5046195;28;20206;-64
2023/03/07 09:05:37;;;;;;;1.10;1.00;;;20.00;66.40;;;;;;5034748;28;20568;-64
2023/03/07 09:08:04;;;;;;;2.38;1.10;;;20.00;66.40;;;;;;5042141;28;20276;-64
2023/03/07 09:10:31;;;;;;;0.95;0.70;;;19.90;66.30;;;;;;5045727;28;20204;-64
2023/03/07 09:12:58;;;;;;;1.00;0.75;;;20.00;66.50;;;;;;5049187;28;20810;-64
2023/03/07 09:15:25;;;;;;;1.10;0.85;;;20.00;66.40;;;;;;5041082;28;20211;-64
2023/03/07 09:17:52;;;;;;;1.38;0.85;;;20.00;66.50;;;;;;5044200;28;20772;-64
2023/03/07 09:20:21;;;;;;;5.03;1.00;;;20.00;66.50;;;;;;5048055;28;20201;-64
2023/03/07 09:22:47;;;;;;;1.00;0.80;;;20.00;66.50;;;;;;5042032;28;20215;-64
2023/03/07 09:25:14;;;;;;;0.95;0.85;;;20.00;66.60;;;;;;5049656;28;20195;-64
2023/03/07 09:27:44;;;;;;;1.00;0.90;;;20.00;66.60;;;;;;5044803;28;20222;-64
2023/03/07 09:30:12;;;;;;;2.58;0.90;;;20.00;66.60;;;;;;5049010;28;20203;-64
2023/03/07 09:32:38;;;;;;;1.20;0.90;;;20.00;66.60;;;;;;5052772;28;20238;-64
2023/03/07 09:35:06;;;;;;;1.48;1.00;;;20.00;66.60;;;;;;5049189;28;20732;-64
2023/03/07 09:37:34;;;;;;;1.02;0.90;;;20.00;66.60;;;;;;5049437;28;20674;-64
2023/03/07 09:40:01;;;;;;;1.00;0.82;;;20.00;66.60;;;;;;5039513;28;20619;-64
2023/03/07 09:42:36;;;;;;;1.10;0.90;;;20.00;66.60;;;;;;5045967;28;20206;-64
2023/03/07 09:45:31;;;;;;;1.15;1.00;;;20.00;66.70;;;;;;5046178;28;20213;-63
2023/03/07 09:48:20;;;;;;;1.08;0.80;;;20.00;66.80;;;;;;5044423;28;20196;-64
2023/03/07 09:50:52;;;;;;;1.20;1.00;;;20.00;66.80;;;;;;5043472;28;20552;-64
2023/03/07 09:53:31;;;;;;;1.23;0.95;;;20.00;66.80;;;;;;5042057;28;20290;-64
2023/03/07 09:55:59;;;;;;;1.75;1.00;;;20.00;67.40;;;;;;5045006;28;20195;-63
2023/03/07 09:58:27;;;;;;;3.15;0.90;;;20.00;67.70;;;;;;5040900;28;20220;-69
2023/03/07 10:00:58;;;;;;;1.10;0.95;;;20.00;67.60;;;;;;5044023;28;20563;-66
2023/03/07 10:03:33;;;;;;;1.00;0.82;;;20.00;67.50;;;;;;5047720;28;20212;-66
2023/03/07 10:06:05;;;;;;;3.45;0.88;;;20.00;67.30;;;;;;5046411;28;20241;-67
2023/03/07 10:08:34;;;;;;;1.40;0.80;;;20.10;67.50;;;;;;5042773;28;20204;-66
2023/03/07 10:11:10;;;;;;;2.60;0.82;;;20.10;67.50;;;;;;5048435;28;20196;-66
2023/03/07 10:13:55;;;;;;;1.95;0.90;;;20.10;67.50;;;;;;5044994;28;20192;-67
2023/03/07 10:16:31;;;;;;;2.30;1.00;;;20.20;67.50;;;;;;5040551;28;20202;-67
2023/03/07 10:19:06;;;;;;;3.47;0.90;;;20.20;67.60;;;;;;5044574;28;20262;-63
2023/03/07 10:21:39;;;;;;;1.15;0.90;;;20.20;67.80;;;;;;5042846;28;20324;-65
2023/03/07 10:24:43;;;;;;;1.02;0.90;;;20.20;67.80;;;;;;5037105;28;20202;-66
2023/03/07 10:27:12;;;;;;;1.02;0.93;;;20.30;67.90;;;;;;5049558;28;20226;-65
2023/03/07 10:29:46;;;;;;;1.20;0.98;;;20.30;68.00;;;;;;5053993;28;20206;-65
2023/03/07 10:32:29;;;;;;;1.20;0.90;;;20.30;68.00;;;;;;5048017;28;20199;-66
2023/03/07 10:35:01;;;;;;;1.80;0.90;;;20.30;68.10;;;;;;5047351;28;20199;-66
2023/03/07 10:37:40;;;;;;;4.13;1.05;;;20.30;68.10;;;;;;5048760;28;20206;-67
2023/03/07 10:40:17;;;;;;;1.15;1.05;;;20.40;68.20;;;;;;5048303;28;20286;-69
2023/03/07 10:42:45;;;;;;;1.20;1.00;;;20.40;68.30;;;;;;5048580;28;20199;-70
2023/03/07 10:45:13;;;;;;;1.27;0.90;;;20.40;69.10;;;;;;5053267;28;20222;-68
2023/03/07 10:47:40;;;;;;;1.00;0.85;;;20.40;68.40;;;;;;5049073;28;20210;-69
2023/03/07 10:50:24;;;;;;;1.15;0.90;;;20.40;68.40;;;;;;5050421;28;20202;-70
2023/03/07 10:52:53;;;;;;;2.13;0.82;;;20.40;68.40;;;;;;5043915;28;20192;-72
2023/03/07 10:55:37;;;;;;;1.00;0.80;;;20.40;68.40;;;;;;5040055;28;20201;-71
2023/03/07 10:58:19;;;;;;;1.25;1.00;;;20.40;68.40;;;;;;5042299;28;20234;-66
2023/03/07 11:00:58;;;;;;;1.25;0.88;;;20.40;68.50;;;;;;5045838;28;20210;-64
2023/03/07 11:03:28;;;;;;;1.52;0.90;;;20.50;68.60;;;;;;5044675;28;20222;-66
2023/03/07 11:05:55;;;;;;;2.23;0.97;;;20.50;68.60;;;;;;5050665;28;20200;-69
2023/03/07 11:08:28;;;;;;;1.35;0.90;;;20.50;68.50;;;;;;5049155;28;20462;-65
2023/03/07 11:10:55;;;;;;;0.90;0.80;;;20.50;68.60;;;;;;5048535;28;20200;-64
2023/03/07 11:13:24;;;;;;;1.00;0.88;;;20.50;68.60;;;;;;5048073;28;20221;-65
2023/03/07 11:15:51;;;;;;;0.90;0.75;;;20.50;68.60;;;;;;5052845;28;20655;-74
2023/03/07 11:18:26;;;;;;;1.00;0.90;;;20.50;68.60;;;;;;5046797;28;20230;-65
2023/03/07 11:20:53;;;;;;;0.90;0.80;;;20.50;68.60;;;;;;5050880;28;20199;-67
2023/03/07 11:23:22;;;;;;;1.08;0.82;;;20.50;68.60;;;;;;5050996;28;20587;-70
2023/03/07 11:25:49;;;;;;;2.17;0.90;;;20.60;68.70;;;;;;5046132;28;20233;-64
2023/03/07 11:28:32;;;;;;;3.22;0.88;;;20.60;68.70;;;;;;5042444;28;20208;-65
2023/03/07 11:31:11;;;;;;;2.17;0.90;;;20.60;68.70;;;;;;5042724;28;20206;-64
2023/03/07 11:33:48;;;;;;;1.10;0.70;;;20.60;68.70;;;;;;5046098;28;20204;-68
2023/03/07 11:36:17;;;;;;;1.30;0.90;;;20.60;68.70;;;;;;5050050;28;20198;-67
2023/03/07 11:38:55;;;;;;;0.90;0.75;;;20.60;68.70;;;;;;5048604;28;20226;-65
2023/03/07 11:41:26;;;;;;;0.80;0.70;;;20.60;68.70;;;;;;5045581;28;20210;-65
2023/03/07 11:44:30;;;;;;;3.95;0.85;;;20.60;69.50;;;;;;5044780;28;20208;-63
2023/03/07 11:47:18;;;;;;;1.30;0.87;;;20.60;68.70;;;;;;5049380;28;20198;-66
2023/03/07 11:49:50;;;;;;;1.10;0.90;;;20.60;68.70;;;;;;5042763;28;20481;-65
2023/03/07 11:52:37;;;;;;;1.85;0.82;;;20.60;68.70;;;;;;5050255;28;20196;-65
2023/03/07 11:55:20;;;;;;;1.80;0.82;;;20.60;68.70;;;;;;5039219;28;20559;-62
2023/03/07 11:58:01;;;;;;;5.47;1.10;;;20.60;68.80;;;;;;5048271;28;20199;-66
2023/03/07 12:00:36;;;;;;;3.92;0.90;;;20.60;69.50;;;;;;5045413;28;20198;-65
2023/03/07 12:03:27;;;;;;;0.90;0.80;;;20.70;68.90;;;;;;5040418;28;20213;-68
2023/03/07 12:06:14;;;;;;;1.10;1.00;;;20.70;68.80;;;;;;5052074;28;20195;-66
2023/03/07 12:08:54;;;;;;;5.20;0.82;;;20.70;68.80;;;;;;5043509;28;20691;-63
2023/03/07 12:11:31;;;;;;;1.38;0.80;;;20.70;68.80;;;;;;5055319;28;20199;-69
2023/03/07 12:14:08;;;;;;;1.10;0.90;;;20.70;68.80;;;;;;5044949;28;20210;-65
2023/03/07 12:16:46;;;;;;;1.17;0.90;;;20.60;68.70;;;;;;5049462;28;20444;-67
2023/03/07 12:19:27;;;;;;;1.07;0.80;;;20.60;68.70;;;;;;5040526;28;20237;-65
2023/03/07 12:22:12;;;;;;;1.10;0.80;;;20.60;68.70;;;;;;5049660;28;20818;-66
2023/03/07 12:24:45;;;;;;;2.07;1.00;;;20.70;68.80;;;;;;5049951;28;20214;-65
2023/03/07 12:27:17;;;;;;;1.30;0.90;;;20.70;68.90;;;;;;5045481;28;20465;-63
2023/03/07 12:29:49;;;;;;;2.00;0.87;;;20.70;68.90;;;;;;5040531;28;20490;-72
2023/03/07 12:32:22;;;;;;;0.90;0.73;;;20.70;68.90;;;;;;5047203;28;20458;-64
2023/03/07 12:34:55;;;;;;;1.00;0.80;;;20.70;68.90;;;;;;5042861;28;20191;-67
2023/03/07 12:37:25;;;;;;;1.17;0.80;;;20.70;68.80;;;;;;5048180;28;20468;-71
2023/03/07 12:39:54;;;;;;;1.13;0.80;;;20.70;68.80;;;;;;5046271;28;20234;-68
2023/03/07 12:42:32;;;;;;;2.23;0.80;;;20.80;68.90;;;;;;5043608;28;20207;-66
2023/03/07 12:45:03;;;;;;;2.40;1.00;;;20.80;68.90;;;;;;5050013;28;20801;-69
2023/03/07 12:47:41;;;;;;;1.00;0.90;;;20.70;68.80;;;;;;5043064;28;20453;-70
2023/03/07 12:50:14;;;;;;;1.27;0.90;;;20.70;68.80;;;;;;5046277;28;20458;-65
2023/03/07 12:52:45;;;;;;;2.10;0.77;;;20.70;68.80;;;;;;5056764;28;20441;-69
2023/03/07 12:55:22;;;;;;;1.67;0.93;;;20.70;68.80;;;;;;5050850;28;20465;-66
2023/03/07 12:57:58;;;;;;;1.00;0.80;;;20.80;69.70;;;;;;5048597;28;20457;-66
2023/03/07 13:00:25;;;;;;;0.90;0.70;;;20.80;68.90;;;;;;5044494;28;20509;-66